sensor_id;sensor_type;location;lat;lon;timestamp;P1;durP1;ratioP1;P2;durP2;ratioP2
49131;SDS011;35149;51.196;6.204;2023-08-31T00:00:27;3.03;;;1.83;;
49131;SDS011;35149;51.196;6.204;2023-08-31T00:02:55;5.85;;;1.88;;
49131;SDS011;35149;51.196;6.204;2023-08-31T00:05:21;2.97;;;1.85;;
49131;SDS011;35149;51.196;6.204;2023-08-31T00:07:48;2.78;;;1.92;;
49131;SDS011;35149;51.196;6.204;2023-08-31T00:10:17;2.75;;;2.20;;
49131;SDS011;35149;51.196;6.204;2023-08-31T00:12:45;2.80;;;2.05;;
49131;SDS011;35149;51.196;6.204;2023-08-31T00:15:17;5.32;;;2.30;;
49131;SDS011;35149;51.196;6.204;2023-08-31T00:17:43;3.20;;;2.08;;
49131;SDS011;35149;51.196;6.204;2023-08-31T00:20:12;3.17;;;1.77;;
49131;SDS011;35149;51.196;6.204;2023-08-31T00:22:39;2.83;;;1.77;;
49131;SDS011;35149;51.196;6.204;2023-08-31T00:25:10;3.75;;;2.30;;
49131;SDS011;35149;51.196;6.204;2023-08-31T00:27:36;2.15;;;1.95;;
49131;SDS011;35149;51.196;6.204;2023-08-31T00:30:09;3.33;;;2.30;;
49131;SDS011;35149;51.196;6.204;2023-08-31T00:32:39;3.75;;;2.80;;
49131;SDS011;35149;51.196;6.204;2023-08-31T00:35:09;4.93;;;2.40;;
49131;SDS011;35149;51.196;6.204;2023-08-31T00:37:38;4.70;;;2.97;;
49131;SDS011;35149;51.196;6.204;2023-08-31T00:40:07;3.65;;;2.72;;
49131;SDS011;35149;51.196;6.204;2023-08-31T00:42:35;3.45;;;2.70;;
49131;SDS011;35149;51.196;6.204;2023-08-31T00:45:04;2.92;;;2.63;;
49131;SDS011;35149;51.196;6.204;2023-08-31T00:47:32;2.88;;;2.30;;
49131;SDS011;35149;51.196;6.204;2023-08-31T00:49:59;3.40;;;2.47;;
49131;SDS011;35149;51.196;6.204;2023-08-31T00:52:27;3.90;;;2.50;;
49131;SDS011;35149;51.196;6.204;2023-08-31T00:54:55;4.40;;;2.35;;
49131;SDS011;35149;51.196;6.204;2023-08-31T00:57:22;3.42;;;2.08;;
49131;SDS011;35149;51.196;6.204;2023-08-31T00:59:54;5.03;;;2.35;;
49131;SDS011;35149;51.196;6.204;2023-08-31T01:02:40;3.83;;;2.33;;
49131;SDS011;35149;51.196;6.204;2023-08-31T01:07:58;2.92;;;1.80;;
49131;SDS011;35149;51.196;6.204;2023-08-31T01:13:35;2.50;;;1.98;;
49131;SDS011;35149;51.196;6.204;2023-08-31T01:16:07;2.25;;;2.05;;
49131;SDS011;35149;51.196;6.204;2023-08-31T01:18:35;2.05;;;1.60;;
49131;SDS011;35149;51.196;6.204;2023-08-31T01:23:55;2.55;;;2.00;;
49131;SDS011;35149;51.196;6.204;2023-08-31T01:26:22;2.03;;;1.50;;
49131;SDS011;35149;51.196;6.204;2023-08-31T01:28:51;1.60;;;1.48;;
49131;SDS011;35149;51.196;6.204;2023-08-31T01:31:19;1.75;;;1.45;;
49131;SDS011;35149;51.196;6.204;2023-08-31T01:33:46;1.75;;;1.27;;
49131;SDS011;35149;51.196;6.204;2023-08-31T01:36:16;1.65;;;1.40;;
49131;SDS011;35149;51.196;6.204;2023-08-31T01:38:51;2.30;;;1.05;;
49131;SDS011;35149;51.196;6.204;2023-08-31T01:41:24;1.92;;;1.30;;
49131;SDS011;35149;51.196;6.204;2023-08-31T01:43:56;4.03;;;1.50;;
49131;SDS011;35149;51.196;6.204;2023-08-31T01:46:23;2.92;;;1.55;;
49131;SDS011;35149;51.196;6.204;2023-08-31T01:48:53;1.73;;;1.60;;
49131;SDS011;35149;51.196;6.204;2023-08-31T01:51:20;2.25;;;1.52;;
49131;SDS011;35149;51.196;6.204;2023-08-31T01:53:48;1.83;;;1.35;;
49131;SDS011;35149;51.196;6.204;2023-08-31T01:56:17;2.60;;;1.25;;
49131;SDS011;35149;51.196;6.204;2023-08-31T01:58:43;1.52;;;1.20;;
49131;SDS011;35149;51.196;6.204;2023-08-31T02:01:14;2.05;;;1.23;;
49131;SDS011;35149;51.196;6.204;2023-08-31T02:03:41;1.52;;;1.42;;
49131;SDS011;35149;51.196;6.204;2023-08-31T02:06:08;2.10;;;1.20;;
49131;SDS011;35149;51.196;6.204;2023-08-31T02:08:37;2.38;;;1.38;;
49131;SDS011;35149;51.196;6.204;2023-08-31T02:11:16;1.30;;;1.20;;
49131;SDS011;35149;51.196;6.204;2023-08-31T02:13:43;1.23;;;1.13;;
49131;SDS011;35149;51.196;6.204;2023-08-31T02:16:12;1.25;;;1.15;;
49131;SDS011;35149;51.196;6.204;2023-08-31T02:18:39;1.50;;;1.10;;
49131;SDS011;35149;51.196;6.204;2023-08-31T02:21:06;1.48;;;1.38;;
49131;SDS011;35149;51.196;6.204;2023-08-31T02:23:33;2.13;;;0.95;;
49131;SDS011;35149;51.196;6.204;2023-08-31T02:26:04;1.45;;;1.15;;
49131;SDS011;35149;51.196;6.204;2023-08-31T02:28:30;1.33;;;1.23;;
49131;SDS011;35149;51.196;6.204;2023-08-31T02:31:00;2.05;;;1.30;;
49131;SDS011;35149;51.196;6.204;2023-08-31T02:35:58;0.85;;;0.70;;
49131;SDS011;35149;51.196;6.204;2023-08-31T02:38:27;2.15;;;1.45;;
49131;SDS011;35149;51.196;6.204;2023-08-31T02:41:01;2.40;;;0.98;;
49131;SDS011;35149;51.196;6.204;2023-08-31T02:43:30;0.80;;;0.80;;
49131;SDS011;35149;51.196;6.204;2023-08-31T02:46:01;1.20;;;1.10;;
49131;SDS011;35149;51.196;6.204;2023-08-31T02:48:29;0.88;;;0.88;;
49131;SDS011;35149;51.196;6.204;2023-08-31T02:50:57;2.15;;;1.60;;
49131;SDS011;35149;51.196;6.204;2023-08-31T02:53:31;1.42;;;1.33;;
49131;SDS011;35149;51.196;6.204;2023-08-31T02:55:59;1.55;;;1.35;;
49131;SDS011;35149;51.196;6.204;2023-08-31T02:58:27;1.25;;;0.90;;
49131;SDS011;35149;51.196;6.204;2023-08-31T03:01:06;3.20;;;1.58;;
49131;SDS011;35149;51.196;6.204;2023-08-31T03:03:40;2.58;;;1.38;;
49131;SDS011;35149;51.196;6.204;2023-08-31T03:06:10;1.45;;;1.27;;
49131;SDS011;35149;51.196;6.204;2023-08-31T03:08:37;1.30;;;1.10;;
49131;SDS011;35149;51.196;6.204;2023-08-31T03:11:07;1.30;;;1.20;;
49131;SDS011;35149;51.196;6.204;2023-08-31T03:13:36;3.00;;;1.33;;
49131;SDS011;35149;51.196;6.204;2023-08-31T03:16:04;1.30;;;1.20;;
49131;SDS011;35149;51.196;6.204;2023-08-31T03:18:34;2.22;;;1.60;;
49131;SDS011;35149;51.196;6.204;2023-08-31T03:21:02;1.55;;;1.45;;
49131;SDS011;35149;51.196;6.204;2023-08-31T03:23:29;1.65;;;1.33;;
49131;SDS011;35149;51.196;6.204;2023-08-31T03:25:58;1.98;;;1.55;;
49131;SDS011;35149;51.196;6.204;2023-08-31T03:28:32;3.80;;;1.42;;
49131;SDS011;35149;51.196;6.204;2023-08-31T03:31:01;1.60;;;1.50;;
49131;SDS011;35149;51.196;6.204;2023-08-31T03:33:28;1.80;;;1.70;;
49131;SDS011;35149;51.196;6.204;2023-08-31T03:36:02;1.33;;;1.23;;
49131;SDS011;35149;51.196;6.204;2023-08-31T03:38:41;1.38;;;1.27;;
49131;SDS011;35149;51.196;6.204;2023-08-31T03:41:07;1.95;;;1.55;;
49131;SDS011;35149;51.196;6.204;2023-08-31T03:43:40;1.95;;;1.85;;
49131;SDS011;35149;51.196;6.204;2023-08-31T03:46:07;4.03;;;1.70;;
49131;SDS011;35149;51.196;6.204;2023-08-31T03:48:34;1.70;;;1.60;;
49131;SDS011;35149;51.196;6.204;2023-08-31T03:51:01;2.28;;;1.80;;
49131;SDS011;35149;51.196;6.204;2023-08-31T03:53:30;2.55;;;1.50;;
49131;SDS011;35149;51.196;6.204;2023-08-31T03:56:01;3.42;;;2.10;;
49131;SDS011;35149;51.196;6.204;2023-08-31T03:58:32;2.42;;;1.63;;
49131;SDS011;35149;51.196;6.204;2023-08-31T04:01:03;3.22;;;1.85;;
49131;SDS011;35149;51.196;6.204;2023-08-31T04:03:33;2.35;;;1.77;;
49131;SDS011;35149;51.196;6.204;2023-08-31T04:06:00;2.10;;;1.80;;
49131;SDS011;35149;51.196;6.204;2023-08-31T04:08:26;2.03;;;1.77;;
49131;SDS011;35149;51.196;6.204;2023-08-31T04:10:56;2.25;;;2.05;;
49131;SDS011;35149;51.196;6.204;2023-08-31T04:13:24;2.10;;;1.90;;
49131;SDS011;35149;51.196;6.204;2023-08-31T04:15:52;4.32;;;2.00;;
49131;SDS011;35149;51.196;6.204;2023-08-31T04:18:20;3.50;;;2.20;;
49131;SDS011;35149;51.196;6.204;2023-08-31T04:20:48;2.50;;;1.90;;
49131;SDS011;35149;51.196;6.204;2023-08-31T04:23:24;3.10;;;2.17;;
49131;SDS011;35149;51.196;6.204;2023-08-31T04:25:50;3.88;;;2.15;;
49131;SDS011;35149;51.196;6.204;2023-08-31T04:28:19;3.45;;;2.22;;
49131;SDS011;35149;51.196;6.204;2023-08-31T04:30:49;3.28;;;2.15;;
49131;SDS011;35149;51.196;6.204;2023-08-31T04:33:18;2.58;;;2.22;;
49131;SDS011;35149;51.196;6.204;2023-08-31T04:35:45;3.03;;;2.08;;
49131;SDS011;35149;51.196;6.204;2023-08-31T04:38:16;6.63;;;3.00;;
49131;SDS011;35149;51.196;6.204;2023-08-31T04:40:43;3.05;;;2.47;;
49131;SDS011;35149;51.196;6.204;2023-08-31T04:43:16;3.22;;;2.60;;
49131;SDS011;35149;51.196;6.204;2023-08-31T04:45:45;5.38;;;2.65;;
49131;SDS011;35149;51.196;6.204;2023-08-31T04:48:12;2.88;;;2.50;;
49131;SDS011;35149;51.196;6.204;2023-08-31T04:50:40;3.20;;;2.17;;
49131;SDS011;35149;51.196;6.204;2023-08-31T04:53:07;2.65;;;2.42;;
49131;SDS011;35149;51.196;6.204;2023-08-31T04:55:33;4.75;;;3.20;;
49131;SDS011;35149;51.196;6.204;2023-08-31T04:58:00;3.75;;;2.80;;
49131;SDS011;35149;51.196;6.204;2023-08-31T05:00:27;4.30;;;2.67;;
49131;SDS011;35149;51.196;6.204;2023-08-31T05:02:53;2.97;;;2.60;;
49131;SDS011;35149;51.196;6.204;2023-08-31T05:05:20;4.78;;;3.10;;
49131;SDS011;35149;51.196;6.204;2023-08-31T05:07:47;3.70;;;3.35;;
49131;SDS011;35149;51.196;6.204;2023-08-31T05:10:14;3.72;;;3.08;;
49131;SDS011;35149;51.196;6.204;2023-08-31T05:12:40;3.63;;;3.33;;
49131;SDS011;35149;51.196;6.204;2023-08-31T05:15:10;4.18;;;3.10;;
49131;SDS011;35149;51.196;6.204;2023-08-31T05:17:38;5.97;;;3.22;;
49131;SDS011;35149;51.196;6.204;2023-08-31T05:20:05;3.38;;;3.08;;
49131;SDS011;35149;51.196;6.204;2023-08-31T05:22:34;3.97;;;3.45;;
49131;SDS011;35149;51.196;6.204;2023-08-31T05:25:01;3.83;;;3.17;;
49131;SDS011;35149;51.196;6.204;2023-08-31T05:27:30;5.20;;;3.17;;
49131;SDS011;35149;51.196;6.204;2023-08-31T05:29:57;5.53;;;3.80;;
49131;SDS011;35149;51.196;6.204;2023-08-31T05:32:27;4.10;;;3.47;;
49131;SDS011;35149;51.196;6.204;2023-08-31T05:34:55;3.42;;;3.13;;
49131;SDS011;35149;51.196;6.204;2023-08-31T05:37:25;3.88;;;3.47;;
49131;SDS011;35149;51.196;6.204;2023-08-31T05:39:52;5.47;;;3.80;;
49131;SDS011;35149;51.196;6.204;2023-08-31T05:42:18;4.38;;;3.88;;
49131;SDS011;35149;51.196;6.204;2023-08-31T05:44:45;5.57;;;3.60;;
49131;SDS011;35149;51.196;6.204;2023-08-31T05:47:12;4.07;;;3.42;;
49131;SDS011;35149;51.196;6.204;2023-08-31T05:49:38;5.13;;;4.07;;
49131;SDS011;35149;51.196;6.204;2023-08-31T05:52:05;4.38;;;3.47;;
49131;SDS011;35149;51.196;6.204;2023-08-31T05:54:32;4.90;;;3.60;;
49131;SDS011;35149;51.196;6.204;2023-08-31T05:56:59;5.55;;;4.00;;
49131;SDS011;35149;51.196;6.204;2023-08-31T05:59:25;5.38;;;3.58;;
49131;SDS011;35149;51.196;6.204;2023-08-31T06:01:52;4.32;;;3.92;;
49131;SDS011;35149;51.196;6.204;2023-08-31T06:04:21;5.15;;;3.50;;
49131;SDS011;35149;51.196;6.204;2023-08-31T06:06:48;5.00;;;3.60;;
49131;SDS011;35149;51.196;6.204;2023-08-31T06:09:18;4.97;;;3.55;;
49131;SDS011;35149;51.196;6.204;2023-08-31T06:11:44;4.00;;;3.22;;
49131;SDS011;35149;51.196;6.204;2023-08-31T06:14:11;3.47;;;3.00;;
49131;SDS011;35149;51.196;6.204;2023-08-31T06:16:37;5.07;;;3.70;;
49131;SDS011;35149;51.196;6.204;2023-08-31T06:19:05;3.28;;;2.97;;
49131;SDS011;35149;51.196;6.204;2023-08-31T06:21:34;5.20;;;3.60;;
49131;SDS011;35149;51.196;6.204;2023-08-31T06:24:01;5.35;;;3.50;;
49131;SDS011;35149;51.196;6.204;2023-08-31T06:26:28;4.13;;;3.22;;
49131;SDS011;35149;51.196;6.204;2023-08-31T06:28:55;4.80;;;3.55;;
49131;SDS011;35149;51.196;6.204;2023-08-31T06:31:22;3.95;;;3.55;;
49131;SDS011;35149;51.196;6.204;2023-08-31T06:33:48;4.72;;;3.30;;
49131;SDS011;35149;51.196;6.204;2023-08-31T06:36:15;5.72;;;3.45;;
49131;SDS011;35149;51.196;6.204;2023-08-31T06:38:42;3.85;;;3.22;;
49131;SDS011;35149;51.196;6.204;2023-08-31T06:41:11;4.20;;;3.80;;
49131;SDS011;35149;51.196;6.204;2023-08-31T06:43:38;6.20;;;3.53;;
49131;SDS011;35149;51.196;6.204;2023-08-31T06:46:05;5.07;;;4.07;;
49131;SDS011;35149;51.196;6.204;2023-08-31T06:48:49;4.32;;;3.35;;
49131;SDS011;35149;51.196;6.204;2023-08-31T06:51:15;4.55;;;3.15;;
49131;SDS011;35149;51.196;6.204;2023-08-31T06:53:43;6.80;;;4.05;;
49131;SDS011;35149;51.196;6.204;2023-08-31T06:56:10;4.25;;;3.00;;
49131;SDS011;35149;51.196;6.204;2023-08-31T06:58:38;3.97;;;3.10;;
49131;SDS011;35149;51.196;6.204;2023-08-31T07:01:05;5.97;;;3.50;;
49131;SDS011;35149;51.196;6.204;2023-08-31T07:03:32;4.20;;;3.05;;
49131;SDS011;35149;51.196;6.204;2023-08-31T07:05:59;3.65;;;2.75;;
49131;SDS011;35149;51.196;6.204;2023-08-31T07:08:26;5.57;;;3.10;;
49131;SDS011;35149;51.196;6.204;2023-08-31T07:10:53;4.47;;;3.10;;
49131;SDS011;35149;51.196;6.204;2023-08-31T07:13:20;5.25;;;3.55;;
49131;SDS011;35149;51.196;6.204;2023-08-31T07:15:46;2.90;;;2.60;;
49131;SDS011;35149;51.196;6.204;2023-08-31T07:18:15;5.25;;;3.22;;
49131;SDS011;35149;51.196;6.204;2023-08-31T07:20:45;3.17;;;2.33;;
49131;SDS011;35149;51.196;6.204;2023-08-31T07:23:12;5.65;;;3.05;;
49131;SDS011;35149;51.196;6.204;2023-08-31T07:25:40;3.47;;;2.70;;
49131;SDS011;35149;51.196;6.204;2023-08-31T07:28:08;2.63;;;2.42;;
49131;SDS011;35149;51.196;6.204;2023-08-31T07:30:35;3.35;;;2.65;;
49131;SDS011;35149;51.196;6.204;2023-08-31T07:33:01;4.45;;;2.60;;
49131;SDS011;35149;51.196;6.204;2023-08-31T07:35:42;4.57;;;3.00;;
49131;SDS011;35149;51.196;6.204;2023-08-31T07:38:09;5.35;;;2.80;;
49131;SDS011;35149;51.196;6.204;2023-08-31T07:40:35;4.80;;;2.20;;
49131;SDS011;35149;51.196;6.204;2023-08-31T07:43:02;4.70;;;2.33;;
49131;SDS011;35149;51.196;6.204;2023-08-31T07:45:29;5.22;;;2.85;;
49131;SDS011;35149;51.196;6.204;2023-08-31T07:47:56;2.97;;;2.45;;
49131;SDS011;35149;51.196;6.204;2023-08-31T07:50:23;5.63;;;2.85;;
49131;SDS011;35149;51.196;6.204;2023-08-31T07:52:49;6.50;;;2.88;;
49131;SDS011;35149;51.196;6.204;2023-08-31T07:55:18;4.38;;;3.08;;
49131;SDS011;35149;51.196;6.204;2023-08-31T07:57:45;4.28;;;2.72;;
49131;SDS011;35149;51.196;6.204;2023-08-31T08:00:12;3.50;;;3.20;;
49131;SDS011;35149;51.196;6.204;2023-08-31T08:02:41;7.18;;;2.80;;
49131;SDS011;35149;51.196;6.204;2023-08-31T08:05:07;3.65;;;2.20;;
49131;SDS011;35149;51.196;6.204;2023-08-31T08:07:35;5.75;;;2.67;;
49131;SDS011;35149;51.196;6.204;2023-08-31T08:10:02;6.20;;;2.88;;
49131;SDS011;35149;51.196;6.204;2023-08-31T08:12:36;5.38;;;2.45;;
49131;SDS011;35149;51.196;6.204;2023-08-31T08:15:06;6.05;;;3.40;;
49131;SDS011;35149;51.196;6.204;2023-08-31T08:17:34;4.45;;;2.63;;
49131;SDS011;35149;51.196;6.204;2023-08-31T08:20:01;3.30;;;2.17;;
49131;SDS011;35149;51.196;6.204;2023-08-31T08:22:29;3.35;;;2.35;;
49131;SDS011;35149;51.196;6.204;2023-08-31T08:24:56;4.53;;;2.47;;
49131;SDS011;35149;51.196;6.204;2023-08-31T08:27:22;3.30;;;2.30;;
49131;SDS011;35149;51.196;6.204;2023-08-31T08:29:49;4.40;;;2.28;;
49131;SDS011;35149;51.196;6.204;2023-08-31T08:32:16;3.85;;;2.80;;
49131;SDS011;35149;51.196;6.204;2023-08-31T08:34:42;2.95;;;2.58;;
49131;SDS011;35149;51.196;6.204;2023-08-31T08:37:09;3.20;;;2.45;;
49131;SDS011;35149;51.196;6.204;2023-08-31T08:39:36;3.25;;;2.85;;
49131;SDS011;35149;51.196;6.204;2023-08-31T08:42:04;4.60;;;2.75;;
49131;SDS011;35149;51.196;6.204;2023-08-31T08:44:32;3.92;;;3.05;;
49131;SDS011;35149;51.196;6.204;2023-08-31T08:47:01;3.45;;;2.58;;
49131;SDS011;35149;51.196;6.204;2023-08-31T08:49:30;4.65;;;2.35;;
49131;SDS011;35149;51.196;6.204;2023-08-31T08:51:58;3.53;;;2.90;;
49131;SDS011;35149;51.196;6.204;2023-08-31T08:54:25;3.78;;;2.33;;
49131;SDS011;35149;51.196;6.204;2023-08-31T08:56:53;2.50;;;2.20;;
49131;SDS011;35149;51.196;6.204;2023-08-31T08:59:20;2.70;;;2.47;;
49131;SDS011;35149;51.196;6.204;2023-08-31T09:01:46;2.90;;;2.40;;
49131;SDS011;35149;51.196;6.204;2023-08-31T09:04:14;5.28;;;2.03;;
49131;SDS011;35149;51.196;6.204;2023-08-31T09:06:41;3.78;;;2.28;;
49131;SDS011;35149;51.196;6.204;2023-08-31T09:09:09;5.15;;;2.58;;
49131;SDS011;35149;51.196;6.204;2023-08-31T09:11:37;7.38;;;2.85;;
49131;SDS011;35149;51.196;6.204;2023-08-31T09:14:13;3.85;;;2.40;;
49131;SDS011;35149;51.196;6.204;2023-08-31T09:16:45;4.47;;;2.58;;
49131;SDS011;35149;51.196;6.204;2023-08-31T09:19:17;4.97;;;2.17;;
49131;SDS011;35149;51.196;6.204;2023-08-31T09:21:46;2.88;;;2.15;;
49131;SDS011;35149;51.196;6.204;2023-08-31T09:24:14;4.03;;;2.28;;
49131;SDS011;35149;51.196;6.204;2023-08-31T09:26:47;1.77;;;1.67;;
49131;SDS011;35149;51.196;6.204;2023-08-31T09:29:19;4.00;;;2.38;;
49131;SDS011;35149;51.196;6.204;2023-08-31T09:31:48;4.22;;;2.05;;
49131;SDS011;35149;51.196;6.204;2023-08-31T09:34:16;5.40;;;2.13;;
49131;SDS011;35149;51.196;6.204;2023-08-31T09:36:43;6.57;;;1.92;;
49131;SDS011;35149;51.196;6.204;2023-08-31T09:39:14;4.13;;;2.20;;
49131;SDS011;35149;51.196;6.204;2023-08-31T09:41:53;5.57;;;2.15;;
49131;SDS011;35149;51.196;6.204;2023-08-31T09:44:21;3.88;;;1.63;;
49131;SDS011;35149;51.196;6.204;2023-08-31T09:46:48;7.80;;;2.33;;
49131;SDS011;35149;51.196;6.204;2023-08-31T09:49:17;2.78;;;2.20;;
49131;SDS011;35149;51.196;6.204;2023-08-31T09:51:45;2.97;;;2.08;;
49131;SDS011;35149;51.196;6.204;2023-08-31T09:54:13;3.15;;;2.22;;
49131;SDS011;35149;51.196;6.204;2023-08-31T09:56:42;5.78;;;2.15;;
49131;SDS011;35149;51.196;6.204;2023-08-31T09:59:11;6.78;;;1.98;;
49131;SDS011;35149;51.196;6.204;2023-08-31T10:01:39;5.80;;;2.03;;
49131;SDS011;35149;51.196;6.204;2023-08-31T10:04:07;3.67;;;1.63;;
49131;SDS011;35149;51.196;6.204;2023-08-31T10:06:35;2.17;;;1.88;;
49131;SDS011;35149;51.196;6.204;2023-08-31T10:09:05;2.97;;;2.00;;
49131;SDS011;35149;51.196;6.204;2023-08-31T10:11:33;3.50;;;1.95;;
49131;SDS011;35149;51.196;6.204;2023-08-31T10:14:03;3.17;;;1.98;;
49131;SDS011;35149;51.196;6.204;2023-08-31T10:16:30;2.55;;;1.80;;
49131;SDS011;35149;51.196;6.204;2023-08-31T10:18:58;3.67;;;2.80;;
49131;SDS011;35149;51.196;6.204;2023-08-31T10:21:25;4.57;;;2.55;;
49131;SDS011;35149;51.196;6.204;2023-08-31T10:23:52;5.72;;;2.05;;
49131;SDS011;35149;51.196;6.204;2023-08-31T10:26:26;2.88;;;2.00;;
49131;SDS011;35149;51.196;6.204;2023-08-31T10:28:59;3.05;;;1.73;;
49131;SDS011;35149;51.196;6.204;2023-08-31T10:31:31;6.85;;;2.10;;
49131;SDS011;35149;51.196;6.204;2023-08-31T10:34:02;4.35;;;2.45;;
49131;SDS011;35149;51.196;6.204;2023-08-31T10:36:45;4.85;;;2.75;;
49131;SDS011;35149;51.196;6.204;2023-08-31T10:41:53;2.38;;;2.03;;
49131;SDS011;35149;51.196;6.204;2023-08-31T10:44:22;4.97;;;2.33;;
49131;SDS011;35149;51.196;6.204;2023-08-31T10:46:50;3.55;;;1.75;;
49131;SDS011;35149;51.196;6.204;2023-08-31T10:49:19;4.43;;;3.00;;
49131;SDS011;35149;51.196;6.204;2023-08-31T10:59:24;2.53;;;1.92;;
49131;SDS011;35149;51.196;6.204;2023-08-31T11:02:01;4.90;;;2.47;;
49131;SDS011;35149;51.196;6.204;2023-08-31T11:04:31;4.15;;;1.92;;
49131;SDS011;35149;51.196;6.204;2023-08-31T11:07:23;3.47;;;1.80;;
49131;SDS011;35149;51.196;6.204;2023-08-31T11:09:50;3.30;;;1.52;;
49131;SDS011;35149;51.196;6.204;2023-08-31T11:12:17;10.18;;;2.65;;
49131;SDS011;35149;51.196;6.204;2023-08-31T11:14:48;3.47;;;2.10;;
49131;SDS011;35149;51.196;6.204;2023-08-31T11:17:14;4.47;;;2.17;;
49131;SDS011;35149;51.196;6.204;2023-08-31T11:19:42;4.45;;;2.55;;
49131;SDS011;35149;51.196;6.204;2023-08-31T11:22:10;3.47;;;2.15;;
49131;SDS011;35149;51.196;6.204;2023-08-31T11:24:37;4.30;;;2.28;;
49131;SDS011;35149;51.196;6.204;2023-08-31T11:27:08;5.60;;;1.90;;
49131;SDS011;35149;51.196;6.204;2023-08-31T11:29:36;3.47;;;2.25;;
49131;SDS011;35149;51.196;6.204;2023-08-31T11:32:04;3.22;;;1.52;;
49131;SDS011;35149;51.196;6.204;2023-08-31T11:34:31;3.38;;;1.45;;
49131;SDS011;35149;51.196;6.204;2023-08-31T11:36:58;3.78;;;1.98;;
49131;SDS011;35149;51.196;6.204;2023-08-31T11:39:25;2.60;;;1.58;;
49131;SDS011;35149;51.196;6.204;2023-08-31T11:41:51;3.25;;;1.75;;
49131;SDS011;35149;51.196;6.204;2023-08-31T11:44:18;3.33;;;1.85;;
49131;SDS011;35149;51.196;6.204;2023-08-31T11:46:46;4.43;;;1.77;;
49131;SDS011;35149;51.196;6.204;2023-08-31T11:49:19;4.00;;;2.03;;
49131;SDS011;35149;51.196;6.204;2023-08-31T11:51:49;5.32;;;1.73;;
49131;SDS011;35149;51.196;6.204;2023-08-31T11:54:17;3.03;;;1.70;;
49131;SDS011;35149;51.196;6.204;2023-08-31T11:56:44;5.05;;;1.77;;
49131;SDS011;35149;51.196;6.204;2023-08-31T11:59:16;3.20;;;1.85;;
49131;SDS011;35149;51.196;6.204;2023-08-31T12:01:47;2.35;;;1.88;;
49131;SDS011;35149;51.196;6.204;2023-08-31T12:04:15;3.80;;;1.80;;
49131;SDS011;35149;51.196;6.204;2023-08-31T12:06:46;4.40;;;2.10;;
49131;SDS011;35149;51.196;6.204;2023-08-31T12:09:14;4.15;;;1.70;;
49131;SDS011;35149;51.196;6.204;2023-08-31T12:11:41;3.78;;;1.92;;
49131;SDS011;35149;51.196;6.204;2023-08-31T12:14:18;3.85;;;1.40;;
49131;SDS011;35149;51.196;6.204;2023-08-31T12:16:48;3.33;;;1.73;;
49131;SDS011;35149;51.196;6.204;2023-08-31T12:19:15;2.60;;;1.60;;
49131;SDS011;35149;51.196;6.204;2023-08-31T12:21:43;5.57;;;1.75;;
49131;SDS011;35149;51.196;6.204;2023-08-31T12:24:11;2.72;;;1.63;;
49131;SDS011;35149;51.196;6.204;2023-08-31T12:26:39;1.73;;;1.55;;
49131;SDS011;35149;51.196;6.204;2023-08-31T12:29:06;3.00;;;1.65;;
49131;SDS011;35149;51.196;6.204;2023-08-31T12:31:33;2.42;;;1.48;;
49131;SDS011;35149;51.196;6.204;2023-08-31T12:34:00;4.32;;;1.90;;
49131;SDS011;35149;51.196;6.204;2023-08-31T12:36:30;3.80;;;1.90;;
49131;SDS011;35149;51.196;6.204;2023-08-31T12:38:58;3.33;;;1.38;;
49131;SDS011;35149;51.196;6.204;2023-08-31T12:41:28;3.03;;;1.85;;
49131;SDS011;35149;51.196;6.204;2023-08-31T12:43:55;2.40;;;1.30;;
49131;SDS011;35149;51.196;6.204;2023-08-31T12:46:24;2.08;;;1.20;;
49131;SDS011;35149;51.196;6.204;2023-08-31T12:48:52;2.47;;;1.50;;
49131;SDS011;35149;51.196;6.204;2023-08-31T12:51:19;2.70;;;1.63;;
49131;SDS011;35149;51.196;6.204;2023-08-31T12:53:46;2.70;;;1.35;;
49131;SDS011;35149;51.196;6.204;2023-08-31T12:56:14;5.07;;;1.30;;
49131;SDS011;35149;51.196;6.204;2023-08-31T12:58:50;2.35;;;1.70;;
49131;SDS011;35149;51.196;6.204;2023-08-31T13:01:20;3.10;;;1.80;;
49131;SDS011;35149;51.196;6.204;2023-08-31T13:03:49;3.22;;;1.30;;
49131;SDS011;35149;51.196;6.204;2023-08-31T13:06:15;2.65;;;1.35;;
49131;SDS011;35149;51.196;6.204;2023-08-31T13:08:43;2.10;;;1.17;;
49131;SDS011;35149;51.196;6.204;2023-08-31T13:11:11;1.70;;;1.38;;
49131;SDS011;35149;51.196;6.204;2023-08-31T13:13:38;1.52;;;1.10;;
49131;SDS011;35149;51.196;6.204;2023-08-31T13:16:05;1.77;;;0.98;;
49131;SDS011;35149;51.196;6.204;2023-08-31T13:18:32;1.23;;;1.13;;
49131;SDS011;35149;51.196;6.204;2023-08-31T13:20:59;2.78;;;1.25;;
49131;SDS011;35149;51.196;6.204;2023-08-31T13:23:26;2.40;;;1.10;;
49131;SDS011;35149;51.196;6.204;2023-08-31T13:25:53;2.67;;;1.50;;
49131;SDS011;35149;51.196;6.204;2023-08-31T13:28:20;3.65;;;1.45;;
49131;SDS011;35149;51.196;6.204;2023-08-31T13:30:46;2.00;;;1.33;;
49131;SDS011;35149;51.196;6.204;2023-08-31T13:33:13;1.77;;;1.55;;
49131;SDS011;35149;51.196;6.204;2023-08-31T13:35:40;2.63;;;1.17;;
49131;SDS011;35149;51.196;6.204;2023-08-31T13:38:07;3.33;;;1.23;;
49131;SDS011;35149;51.196;6.204;2023-08-31T13:40:34;3.03;;;1.20;;
49131;SDS011;35149;51.196;6.204;2023-08-31T13:43:02;1.42;;;1.23;;
49131;SDS011;35149;51.196;6.204;2023-08-31T13:45:30;1.83;;;1.20;;
49131;SDS011;35149;51.196;6.204;2023-08-31T13:47:57;1.63;;;1.40;;
49131;SDS011;35149;51.196;6.204;2023-08-31T13:50:27;1.42;;;0.98;;
49131;SDS011;35149;51.196;6.204;2023-08-31T13:52:54;2.25;;;1.23;;
49131;SDS011;35149;51.196;6.204;2023-08-31T13:55:21;2.83;;;1.50;;
49131;SDS011;35149;51.196;6.204;2023-08-31T13:57:49;3.33;;;1.25;;
49131;SDS011;35149;51.196;6.204;2023-08-31T14:00:16;1.67;;;1.40;;
49131;SDS011;35149;51.196;6.204;2023-08-31T14:02:43;2.38;;;1.63;;
49131;SDS011;35149;51.196;6.204;2023-08-31T14:05:11;1.60;;;1.20;;
49131;SDS011;35149;51.196;6.204;2023-08-31T14:07:37;3.47;;;1.40;;
49131;SDS011;35149;51.196;6.204;2023-08-31T14:10:04;4.03;;;1.58;;
49131;SDS011;35149;51.196;6.204;2023-08-31T14:12:33;2.90;;;1.42;;
49131;SDS011;35149;51.196;6.204;2023-08-31T14:15:00;2.03;;;1.45;;
49131;SDS011;35149;51.196;6.204;2023-08-31T14:17:30;1.83;;;1.23;;
49131;SDS011;35149;51.196;6.204;2023-08-31T14:19:58;3.83;;;1.48;;
49131;SDS011;35149;51.196;6.204;2023-08-31T14:22:26;2.95;;;1.75;;
49131;SDS011;35149;51.196;6.204;2023-08-31T14:24:54;1.45;;;1.13;;
49131;SDS011;35149;51.196;6.204;2023-08-31T14:27:21;3.58;;;1.55;;
49131;SDS011;35149;51.196;6.204;2023-08-31T14:29:49;2.45;;;1.50;;
49131;SDS011;35149;51.196;6.204;2023-08-31T14:32:15;5.65;;;1.90;;
49131;SDS011;35149;51.196;6.204;2023-08-31T14:34:42;1.67;;;1.42;;
49131;SDS011;35149;51.196;6.204;2023-08-31T14:37:09;2.90;;;1.73;;
49131;SDS011;35149;51.196;6.204;2023-08-31T14:39:36;2.45;;;1.27;;
49131;SDS011;35149;51.196;6.204;2023-08-31T14:42:03;3.25;;;1.80;;
49131;SDS011;35149;51.196;6.204;2023-08-31T14:44:30;2.08;;;1.65;;
49131;SDS011;35149;51.196;6.204;2023-08-31T14:46:56;4.18;;;1.80;;
49131;SDS011;35149;51.196;6.204;2023-08-31T14:49:23;3.65;;;1.90;;
49131;SDS011;35149;51.196;6.204;2023-08-31T14:51:52;2.88;;;1.60;;
49131;SDS011;35149;51.196;6.204;2023-08-31T14:54:19;4.10;;;1.85;;
49131;SDS011;35149;51.196;6.204;2023-08-31T14:56:47;3.00;;;1.55;;
49131;SDS011;35149;51.196;6.204;2023-08-31T14:59:13;2.33;;;1.30;;
49131;SDS011;35149;51.196;6.204;2023-08-31T15:01:40;3.55;;;1.85;;
49131;SDS011;35149;51.196;6.204;2023-08-31T15:04:07;2.13;;;1.33;;
49131;SDS011;35149;51.196;6.204;2023-08-31T15:06:33;4.15;;;1.60;;
49131;SDS011;35149;51.196;6.204;2023-08-31T15:09:00;6.10;;;1.40;;
49131;SDS011;35149;51.196;6.204;2023-08-31T15:11:30;4.30;;;1.80;;
49131;SDS011;35149;51.196;6.204;2023-08-31T15:13:57;2.28;;;1.25;;
49131;SDS011;35149;51.196;6.204;2023-08-31T15:16:25;2.78;;;1.70;;